Main page
METAR-TAF:

METAR-TAF

Airports :

Terrell Municipal Airport

Terrell, Texas, United States

latitude: 32-42-49N, longitude: 096-16-06W, elevation: 472 ft

Current weather observation

The report was made 38 minutes ago, at 16:53 UTC
Wind 7 mph from the South
Temperature 73°F
Humidity 94%
Pressure 30.10 in. Hg
Visibility: 9 miles
Broken clouds at a height of 600 ft
Overcast at a height of 2000 ft
light rain

METAR: KTRL 231653Z AUTO 19006KT 9SM -RA BKN006 OVC020 23/22 A3010 RMK AO2 RAE1559B49 CIG 004V009 SLP186 P0000 T02330222

Time: 12:31 (17:31 UTC)


TAF: missing

Weather observations and forecasts of more than 4000 airports (METAR and TAF reports).

The available stations are represented by yellow and red dots on the map.

Hover mouse over dot to see the name of the station.

Then click to see weather observations and forecasts.

To change the map : click on the green buttons with a black cross to zoom in, on the green button with a dash to zoom out, or on the green arrows for adjacent maps.


METAR-TAF: